createdAt,value
2022-11-16T00:14:18.565Z,1002.1
2022-11-16T00:29:15.259Z,1002
2022-11-16T00:44:11.042Z,1001.8
2022-11-16T00:45:55.323Z,1001.8
2022-11-16T01:00:51.500Z,1001.8
2022-11-16T01:12:14.262Z,1001.9
2022-11-16T01:27:09.804Z,1001.9
2022-11-16T01:30:02.617Z,1002
2022-11-16T01:44:58.829Z,1001.9
2022-11-16T01:57:39.389Z,1002.1
2022-11-16T02:12:35.492Z,1001.9
2022-11-16T02:24:50.228Z,1001.7
2022-11-16T02:39:46.426Z,1001.5
2022-11-16T02:54:42.669Z,1001.3
2022-11-16T03:09:38.871Z,1001.2
2022-11-16T03:24:35.248Z,1001.4
2022-11-16T03:39:31.865Z,1001.6
2022-11-16T03:54:28.280Z,1001.7
2022-11-16T04:09:24.478Z,1001.8
2022-11-16T04:24:20.435Z,1001.7
2022-11-16T04:39:16.356Z,1002
2022-11-16T04:43:57.416Z,1001.9
2022-11-16T04:58:53.771Z,1002
2022-11-16T05:13:49.872Z,1002
2022-11-16T05:28:45.859Z,1002
2022-11-16T05:43:41.822Z,1002.1
2022-11-16T05:58:37.811Z,1002.2
2022-11-16T06:13:33.426Z,1002.5
2022-11-16T06:28:29.591Z,1002.7
2022-11-16T06:43:25.792Z,1002.9
2022-11-16T06:58:21.926Z,1003
2022-11-16T07:13:17.239Z,1003.2
2022-11-16T07:28:13.340Z,1003.4
2022-11-16T07:43:09.331Z,1003.5
2022-11-16T07:58:05.926Z,1003.9
2022-11-16T08:13:01.958Z,1004.1
2022-11-16T08:27:58.719Z,1004.2
2022-11-16T08:42:54.957Z,1004.1
2022-11-16T08:57:51.345Z,1004.1
2022-11-16T09:27:44.398Z,1004.2
2022-11-16T09:42:40.823Z,1004.2
2022-11-16T09:57:37.424Z,1004.1
2022-11-16T10:12:33.749Z,1004.1
2022-11-16T10:27:30.200Z,1003.9
2022-11-16T10:42:26.685Z,1003.8
2022-11-16T10:57:23.478Z,1003.6
2022-11-16T11:12:19.411Z,1003.5
2022-11-16T11:27:15.364Z,1003.3
2022-11-16T11:42:12.255Z,1003.1
2022-11-16T11:57:08.845Z,1002.9
2022-11-16T12:12:05.960Z,1002.7
2022-11-16T12:27:01.805Z,1002.6
2022-11-16T12:41:57.301Z,1002.5
2022-11-16T12:56:53.706Z,1002.4
2022-11-16T13:11:49.659Z,1002.4
2022-11-16T13:26:45.605Z,1002.2
2022-11-16T13:41:41.345Z,1002.1
2022-11-16T14:11:33.727Z,1002.1
2022-11-16T14:26:29.976Z,1001.9
2022-11-16T14:41:26.288Z,1001.9
2022-11-16T14:56:21.652Z,1001.8
2022-11-16T15:11:17.895Z,1001.6
2022-11-16T15:26:13.967Z,1001.4
2022-11-16T15:41:09.491Z,1001.4
2022-11-16T15:56:05.913Z,1001.2
2022-11-16T16:11:01.573Z,1001.2
2022-11-16T16:25:57.935Z,1001.2
2022-11-16T16:40:54.285Z,1001.2
2022-11-16T16:55:50.059Z,1000.9
2022-11-16T17:10:46.555Z,1000.8
2022-11-16T17:25:42.972Z,1000.7
2022-11-16T17:40:38.988Z,1000.5
2022-11-16T17:55:35.157Z,1000.5
2022-11-16T18:10:31.554Z,1000.3
2022-11-16T18:25:27.556Z,1000.2
2022-11-16T18:40:23.021Z,1000.4
2022-11-16T18:55:19.070Z,1000.4
2022-11-16T19:10:15.410Z,1000.2
2022-11-16T19:25:11.485Z,1000.1
2022-11-16T19:55:03.880Z,1000
2022-11-16T20:10:00.298Z,999.7
2022-11-16T20:24:56.148Z,999.3
2022-11-16T20:39:52.232Z,999
2022-11-16T20:54:48.648Z,999
2022-11-16T21:09:44.850Z,998.7
2022-11-16T21:24:41.407Z,998.4
2022-11-16T21:39:37.477Z,997.9
2022-11-16T21:54:34.115Z,997.8
2022-11-16T22:09:30.389Z,997.6
2022-11-16T22:24:27.494Z,997.4
2022-11-16T22:39:23.290Z,997
2022-11-16T22:54:22.233Z,996.6
2022-11-16T23:09:16.024Z,996.3
2022-11-16T23:24:12.930Z,996
2022-11-16T23:39:08.875Z,995.6
2022-11-16T23:54:05.651Z,995.1
